Moody, Missouri
Current Conditions -  °F | °C
As of 6:53 PM on Saturday 22 Nov 2014 (Local Time) from KUNO Reporting Station
Overcast Overcast  
Wind Chill: 11°   Ceiling: 7500
Heat Index: 11°   Visibility: 10mi
Dew Point:   Wind: 17mph
Humidity: 86%   Direction: 160°SSE
Pressure: 29.96"   Gusts: 24mph
Location:  36.53°N, 91.99°W
Report Text: KUNO 230053Z AUTO 16015G21KT 10SM SCT049 OVC075 11/09 A2996 RMK AO2 SLP147 T01110089
Loading
Personal Weather Stations






























Interactive Weather Map New forecast layout! Learn more

10-Day Weather Forecast

Advertisements
Track Severe Weather on mobile